createdAt,value
2018-01-07T00:00:12.269Z,1011.95
2018-01-07T00:01:12.224Z,1011.96
2018-01-07T00:02:12.201Z,1012.00
2018-01-07T00:03:12.161Z,1012.02
2018-01-07T00:04:12.133Z,1012.01
2018-01-07T00:05:12.118Z,1012.01
2018-01-07T00:06:12.093Z,1012.06
2018-01-07T00:07:12.047Z,1012.10
2018-01-07T00:08:12.018Z,1012.08
2018-01-07T00:09:11.988Z,1012.09
2018-01-07T00:10:11.956Z,1012.08
2018-01-07T00:11:11.937Z,1012.09
2018-01-07T00:12:11.895Z,1012.09
2018-01-07T00:13:11.874Z,1012.06
2018-01-07T00:14:11.831Z,1012.10
2018-01-07T00:15:11.811Z,1012.09
2018-01-07T00:16:11.772Z,1012.05
2018-01-07T00:17:11.742Z,1012.11
2018-01-07T00:18:11.714Z,1012.10
2018-01-07T00:19:11.703Z,1012.10
2018-01-07T00:20:11.649Z,1012.12
2018-01-07T00:21:11.636Z,1012.17
2018-01-07T00:22:11.594Z,1012.14
2018-01-07T00:23:11.580Z,1012.14
2018-01-07T00:24:11.547Z,1012.14
2018-01-07T00:25:11.500Z,1012.16
2018-01-07T00:26:11.474Z,1012.17
2018-01-07T00:27:11.439Z,1012.20
2018-01-07T00:28:11.415Z,1012.19
2018-01-07T00:29:11.386Z,1012.26
2018-01-07T00:30:11.351Z,1012.25
2018-01-07T00:31:11.324Z,1012.23
2018-01-07T00:32:11.293Z,1012.27
2018-01-07T00:33:11.265Z,1012.30
2018-01-07T00:34:11.233Z,1012.35
2018-01-07T00:35:11.221Z,1012.35
2018-01-07T00:36:11.172Z,1012.35
2018-01-07T00:37:11.139Z,1012.32
2018-01-07T00:38:11.116Z,1012.38
2018-01-07T00:39:11.078Z,1012.37
2018-01-07T00:40:11.049Z,1012.49
2018-01-07T00:41:11.026Z,1012.45
2018-01-07T00:42:10.988Z,1012.46
2018-01-07T00:43:10.962Z,1012.43
2018-01-07T00:44:10.939Z,1012.49
2018-01-07T00:45:10.903Z,1012.48
2018-01-07T00:46:10.875Z,1012.51
2018-01-07T00:47:10.840Z,1012.47
2018-01-07T00:48:10.814Z,1012.51
2018-01-07T00:49:10.780Z,1012.50
2018-01-07T00:50:10.750Z,1012.53
2018-01-07T00:51:10.719Z,1012.60
2018-01-07T00:52:10.688Z,1012.57
2018-01-07T00:53:10.656Z,1012.61
2018-01-07T00:54:10.631Z,1012.63
2018-01-07T00:55:10.599Z,1012.63
2018-01-07T00:56:10.565Z,1012.66
2018-01-07T00:57:10.536Z,1012.70
2018-01-07T00:58:12.397Z,1012.70
2018-01-07T00:59:10.470Z,1012.70
2018-01-07T01:00:10.444Z,1012.76
2018-01-07T01:01:10.416Z,1012.72
2018-01-07T01:02:10.384Z,1012.79
2018-01-07T01:03:10.355Z,1012.78
2018-01-07T01:04:10.339Z,1012.85
2018-01-07T01:05:10.304Z,1012.80
2018-01-07T01:06:10.264Z,1012.88
2018-01-07T01:07:10.236Z,1012.91
2018-01-07T01:08:10.209Z,1012.92
2018-01-07T01:09:10.173Z,1012.95
2018-01-07T01:10:10.140Z,1012.92
2018-01-07T01:11:10.141Z,1013.00
2018-01-07T01:12:10.085Z,1012.99
2018-01-07T01:13:10.050Z,1013.04
2018-01-07T01:14:10.021Z,1013.04
2018-01-07T01:15:09.998Z,1013.02
2018-01-07T01:16:09.971Z,1013.11
2018-01-07T01:17:09.936Z,1013.12
2018-01-07T01:18:09.906Z,1013.13
2018-01-07T01:19:09.882Z,1013.14
2018-01-07T01:20:09.841Z,1013.18
2018-01-07T01:21:09.812Z,1013.17
2018-01-07T01:22:09.785Z,1013.17
2018-01-07T01:23:09.749Z,1013.24
2018-01-07T01:24:09.724Z,1013.29
2018-01-07T01:25:09.689Z,1013.35
2018-01-07T01:26:09.667Z,1013.35
2018-01-07T01:27:09.637Z,1013.39
2018-01-07T01:28:09.597Z,1013.43
2018-01-07T01:29:09.570Z,1013.43
2018-01-07T01:30:09.541Z,1013.44
2018-01-07T01:31:09.509Z,1013.49
2018-01-07T01:32:09.481Z,1013.46
2018-01-07T01:33:09.457Z,1013.46
2018-01-07T01:34:09.419Z,1013.49
2018-01-07T01:35:09.385Z,1013.46
2018-01-07T01:36:09.353Z,1013.50
2018-01-07T01:37:09.326Z,1013.55
2018-01-07T01:38:09.294Z,1013.56
2018-01-07T01:39:09.266Z,1013.55
2018-01-07T01:40:09.232Z,1013.55
2018-01-07T01:41:09.206Z,1013.59
2018-01-07T01:42:09.182Z,1013.63
2018-01-07T01:43:09.151Z,1013.64
2018-01-07T01:44:09.140Z,1013.63
2018-01-07T01:45:09.085Z,1013.67
2018-01-07T01:46:09.058Z,1013.71
2018-01-07T01:47:09.024Z,1013.70
2018-01-07T01:48:08.995Z,1013.68
2018-01-07T01:49:08.962Z,1013.75
2018-01-07T01:50:08.933Z,1013.72
2018-01-07T01:51:08.904Z,1013.72
2018-01-07T01:52:08.869Z,1013.73
2018-01-07T01:53:08.837Z,1013.75
2018-01-07T01:54:08.806Z,1013.72
2018-01-07T01:55:08.799Z,1013.72
2018-01-07T01:56:08.746Z,1013.75
2018-01-07T01:57:08.722Z,1013.76
2018-01-07T01:58:08.692Z,1013.77
2018-01-07T01:59:08.663Z,1013.74
2018-01-07T02:00:08.636Z,1013.81
2018-01-07T02:01:08.599Z,1013.76
2018-01-07T02:02:08.568Z,1013.77
2018-01-07T02:03:15.407Z,1013.79
2018-01-07T02:04:08.506Z,1013.81
2018-01-07T02:05:08.481Z,1013.82
2018-01-07T02:06:08.465Z,1013.82
2018-01-07T02:07:08.418Z,1013.81
2018-01-07T02:08:08.392Z,1013.82
2018-01-07T02:09:08.369Z,1013.86
2018-01-07T02:10:08.337Z,1013.83
2018-01-07T02:11:08.298Z,1013.89
2018-01-07T02:12:08.269Z,1013.80
2018-01-07T02:13:08.234Z,1013.88
2018-01-07T02:14:08.201Z,1013.84
2018-01-07T02:15:08.171Z,1013.94
2018-01-07T02:16:08.140Z,1013.89
2018-01-07T02:17:08.129Z,1013.89
2018-01-07T02:18:08.091Z,1013.91
2018-01-07T02:19:08.052Z,1013.97
2018-01-07T02:20:08.019Z,1013.92
2018-01-07T02:21:07.996Z,1013.96
2018-01-07T02:22:07.963Z,1013.98
2018-01-07T02:23:07.939Z,1014.02
2018-01-07T02:24:07.904Z,1014.02
2018-01-07T02:25:07.876Z,1014.09
2018-01-07T02:26:07.842Z,1014.06
2018-01-07T02:27:07.812Z,1014.03
2018-01-07T02:28:07.800Z,1014.07
2018-01-07T02:29:07.744Z,1014.01
2018-01-07T02:30:07.719Z,1014.05
2018-01-07T02:31:07.688Z,1014.04
2018-01-07T02:32:07.657Z,1014.04
2018-01-07T02:33:07.843Z,1014.03
2018-01-07T02:34:07.597Z,1014.06
2018-01-07T02:35:07.572Z,1013.99
2018-01-07T02:36:07.768Z,1014.01
2018-01-07T02:37:07.508Z,1014.01
2018-01-07T02:38:07.493Z,1014.02
2018-01-07T02:39:07.467Z,1014.12
2018-01-07T02:40:07.427Z,1014.03
2018-01-07T02:41:07.390Z,1014.04
2018-01-07T02:42:07.384Z,1014.15
2018-01-07T02:43:07.325Z,1014.11
2018-01-07T02:44:07.292Z,1014.16
2018-01-07T02:45:07.297Z,1014.14
2018-01-07T02:46:07.239Z,1014.09
2018-01-07T02:47:07.208Z,1014.15
2018-01-07T02:48:07.187Z,1014.17
2018-01-07T02:49:07.141Z,1014.14
2018-01-07T02:50:07.113Z,1014.20
2018-01-07T02:51:07.098Z,1014.17
2018-01-07T02:52:07.064Z,1014.16
2018-01-07T02:53:07.019Z,1014.18
2018-01-07T02:54:07.006Z,1014.19
2018-01-07T02:55:06.962Z,1014.20
2018-01-07T02:56:06.926Z,1014.22
2018-01-07T02:57:06.919Z,1014.23
2018-01-07T02:58:06.887Z,1014.26
2018-01-07T02:59:06.836Z,1014.30
2018-01-07T03:00:06.819Z,1014.33
2018-01-07T03:01:06.809Z,1014.29
2018-01-07T03:02:06.746Z,1014.29
2018-01-07T03:03:06.730Z,1014.28
2018-01-07T03:04:06.685Z,1014.27
2018-01-07T03:05:06.659Z,1014.30
2018-01-07T03:06:06.655Z,1014.32
2018-01-07T03:07:07.344Z,1014.31
2018-01-07T03:08:06.566Z,1014.30
2018-01-07T03:09:06.572Z,1014.36
2018-01-07T03:10:06.500Z,1014.41
2018-01-07T03:11:06.469Z,1014.40
2018-01-07T03:12:06.449Z,1014.39
2018-01-07T03:13:06.409Z,1014.46
2018-01-07T03:14:06.379Z,1014.44
2018-01-07T03:15:06.356Z,1014.50
2018-01-07T03:16:06.324Z,1014.46
2018-01-07T03:17:06.332Z,1014.47
2018-01-07T03:18:06.265Z,1014.53
2018-01-07T03:19:06.231Z,1014.55
2018-01-07T03:20:06.261Z,1014.58
2018-01-07T03:21:06.172Z,1014.61
2018-01-07T03:22:06.136Z,1014.67
2018-01-07T03:23:06.104Z,1014.59
2018-01-07T03:24:06.077Z,1014.63
2018-01-07T03:25:06.047Z,1014.66
2018-01-07T03:26:06.011Z,1014.69
2018-01-07T03:27:05.981Z,1014.67
2018-01-07T03:28:05.961Z,1014.69
2018-01-07T03:29:05.919Z,1014.71
2018-01-07T03:30:05.911Z,1014.69
2018-01-07T03:31:05.862Z,1014.67
2018-01-07T03:32:05.835Z,1014.69
2018-01-07T03:33:05.807Z,1014.67
2018-01-07T03:34:05.799Z,1014.67
2018-01-07T03:35:05.739Z,1014.62
2018-01-07T03:36:05.730Z,1014.65
2018-01-07T03:37:05.675Z,1014.61
2018-01-07T03:39:37.713Z,1014.62
2018-01-07T03:40:37.797Z,1014.63
2018-01-07T03:41:37.623Z,1014.62
2018-01-07T03:42:37.601Z,1014.66
2018-01-07T03:43:37.566Z,1014.64
2018-01-07T03:44:37.533Z,1014.68
2018-01-07T03:45:38.214Z,1014.64
2018-01-07T03:46:37.485Z,1014.73
2018-01-07T03:47:37.451Z,1014.78
2018-01-07T03:48:37.423Z,1014.76
2018-01-07T03:49:37.389Z,1014.63
2018-01-07T03:50:37.353Z,1014.71
2018-01-07T03:51:37.366Z,1014.71
2018-01-07T03:52:37.294Z,1014.77
2018-01-07T03:53:37.273Z,1014.78
2018-01-07T03:54:37.235Z,1014.76
2018-01-07T03:55:37.199Z,1014.59
2018-01-07T03:56:37.168Z,1014.74
2018-01-07T03:57:37.138Z,1014.74
2018-01-07T03:58:37.108Z,1014.74
2018-01-07T03:59:37.075Z,1014.77
2018-01-07T04:00:37.046Z,1014.76
2018-01-07T04:01:37.023Z,1014.82
2018-01-07T04:02:36.987Z,1014.86
2018-01-07T04:03:36.959Z,1014.85
2018-01-07T04:04:36.929Z,1014.84
2018-01-07T04:05:36.899Z,1014.93
2018-01-07T04:06:36.865Z,1014.95
2018-01-07T04:07:36.839Z,1014.94
2018-01-07T04:08:36.806Z,1014.88
2018-01-07T04:09:36.768Z,1014.93
2018-01-07T04:10:36.742Z,1014.89
2018-01-07T04:11:36.713Z,1014.96
2018-01-07T04:12:36.691Z,1014.94
2018-01-07T04:13:36.649Z,1014.99
2018-01-07T04:14:36.618Z,1014.90
2018-01-07T04:15:36.595Z,1015.00
2018-01-07T04:16:36.557Z,1014.99
2018-01-07T04:17:36.540Z,1015.05
2018-01-07T04:18:36.516Z,1015.05
2018-01-07T04:19:36.469Z,1015.06
2018-01-07T04:20:36.455Z,1015.03
2018-01-07T04:21:36.414Z,1015.05
2018-01-07T04:22:36.376Z,1015.11
2018-01-07T04:23:36.364Z,1015.06
2018-01-07T04:24:36.314Z,1015.08
2018-01-07T04:25:36.286Z,1015.05
2018-01-07T04:26:36.274Z,1015.04
2018-01-07T04:27:36.226Z,1015.09
2018-01-07T04:28:36.193Z,1015.03
2018-01-07T04:29:36.162Z,1015.03
2018-01-07T04:30:36.135Z,1015.05
2018-01-07T04:31:36.105Z,1015.05
2018-01-07T04:32:36.070Z,1015.06
2018-01-07T04:33:36.042Z,1015.08
2018-01-07T04:34:36.008Z,1015.11
2018-01-07T04:35:35.976Z,1015.13
2018-01-07T04:36:35.945Z,1015.15
2018-01-07T04:37:35.933Z,1015.06
2018-01-07T04:38:35.887Z,1015.10
2018-01-07T04:39:35.853Z,1015.08
2018-01-07T04:40:35.829Z,1015.06
2018-01-07T04:41:35.800Z,1015.12
2018-01-07T04:42:36.303Z,1015.11
2018-01-07T04:43:35.738Z,1015.15
2018-01-07T04:44:35.712Z,1015.07
2018-01-07T04:45:35.691Z,1015.16
2018-01-07T04:46:35.645Z,1015.25
2018-01-07T04:47:35.613Z,1015.28
2018-01-07T04:48:35.583Z,1015.27
2018-01-07T04:49:35.547Z,1015.29
2018-01-07T04:50:35.529Z,1015.27
2018-01-07T04:51:35.494Z,1015.29
2018-01-07T04:52:35.457Z,1015.36
2018-01-07T04:53:50.284Z,1015.39
2018-01-07T04:54:35.395Z,1015.41
2018-01-07T04:55:35.366Z,1015.39
2018-01-07T04:56:35.357Z,1015.43
2018-01-07T04:57:35.308Z,1015.44
2018-01-07T04:58:49.788Z,1015.47
2018-01-07T04:59:35.247Z,1015.54
2018-01-07T05:00:35.218Z,1015.51
2018-01-07T05:01:35.194Z,1015.54
2018-01-07T05:02:35.159Z,1015.50
2018-01-07T05:03:35.125Z,1015.51
2018-01-07T05:04:35.109Z,1015.60
2018-01-07T05:05:35.059Z,1015.59
2018-01-07T05:06:35.036Z,1015.57
2018-01-07T05:07:35.000Z,1015.65
2018-01-07T05:08:34.965Z,1015.66
2018-01-07T05:09:34.938Z,1015.68
2018-01-07T05:10:34.906Z,1015.66
2018-01-07T05:11:34.878Z,1015.70
2018-01-07T05:12:34.859Z,1015.71
2018-01-07T05:13:34.818Z,1015.72
2018-01-07T05:14:34.790Z,1015.68
2018-01-07T05:15:34.771Z,1015.73
2018-01-07T05:16:34.726Z,1015.76
2018-01-07T05:17:34.696Z,1015.76
2018-01-07T05:18:34.669Z,1015.76
2018-01-07T05:19:34.639Z,1015.79
2018-01-07T05:20:34.604Z,1015.79
2018-01-07T05:21:34.571Z,1015.82
2018-01-07T05:22:34.553Z,1015.83
2018-01-07T05:23:34.508Z,1015.89
2018-01-07T05:24:34.476Z,1015.84
2018-01-07T05:25:34.450Z,1015.86
2018-01-07T05:26:34.422Z,1015.87
2018-01-07T05:27:34.402Z,1015.83
2018-01-07T05:28:34.364Z,1015.87
2018-01-07T05:29:34.327Z,1015.91
2018-01-07T05:30:34.304Z,1015.89
2018-01-07T05:31:34.291Z,1015.94
2018-01-07T05:32:34.236Z,1015.98
2018-01-07T05:33:34.206Z,1015.97
2018-01-07T05:34:34.173Z,1016.03
2018-01-07T05:35:34.143Z,1015.99
2018-01-07T05:36:34.131Z,1016.01
2018-01-07T05:37:34.113Z,1016.02
2018-01-07T05:38:36.789Z,1016.06
2018-01-07T05:39:36.787Z,1016.07
2018-01-07T05:40:33.991Z,1016.04
2018-01-07T05:41:33.963Z,1016.09
2018-01-07T05:42:33.959Z,1016.10
2018-01-07T05:43:33.907Z,1016.17
2018-01-07T05:44:33.873Z,1016.09
2018-01-07T05:45:33.869Z,1016.17
2018-01-07T05:46:33.810Z,1016.18
2018-01-07T05:47:33.775Z,1016.15
2018-01-07T05:48:33.749Z,1016.15
2018-01-07T05:49:33.716Z,1016.15
2018-01-07T05:50:33.893Z,1016.15
2018-01-07T05:51:33.680Z,1016.19
2018-01-07T05:52:33.625Z,1016.21
2018-01-07T05:53:33.607Z,1016.24
2018-01-07T05:54:33.577Z,1016.26
2018-01-07T05:55:33.538Z,1016.18
2018-01-07T05:56:33.514Z,1016.31
2018-01-07T05:57:33.488Z,1016.30
2018-01-07T05:58:33.445Z,1016.31
2018-01-07T05:59:33.414Z,1016.34
2018-01-07T06:00:33.392Z,1016.34
2018-01-07T06:01:33.362Z,1016.36
2018-01-07T06:02:33.328Z,1016.45
2018-01-07T06:03:33.294Z,1016.46
2018-01-07T06:04:33.273Z,1016.39
2018-01-07T06:05:33.226Z,1016.41
2018-01-07T06:06:33.204Z,1016.40
2018-01-07T06:07:33.180Z,1016.48
2018-01-07T06:08:33.135Z,1016.41
2018-01-07T06:09:33.119Z,1016.42
2018-01-07T06:10:33.083Z,1016.45
2018-01-07T06:11:33.051Z,1016.51
2018-01-07T06:12:33.021Z,1016.52
2018-01-07T06:13:32.985Z,1016.55
2018-01-07T06:14:32.962Z,1016.48
2018-01-07T06:15:32.933Z,1016.51
2018-01-07T06:16:32.895Z,1016.56
2018-01-07T06:17:32.859Z,1016.53
2018-01-07T06:18:32.846Z,1016.49
2018-01-07T06:19:32.809Z,1016.50
2018-01-07T06:20:32.775Z,1016.52
2018-01-07T06:21:32.741Z,1016.54
2018-01-07T06:22:32.709Z,1016.50
2018-01-07T06:23:32.686Z,1016.53
2018-01-07T06:24:32.648Z,1016.54
2018-01-07T06:25:32.620Z,1016.60
2018-01-07T06:26:32.593Z,1016.54
2018-01-07T06:27:32.561Z,1016.53
2018-01-07T06:28:32.528Z,1016.55
2018-01-07T06:29:32.492Z,1016.49
2018-01-07T06:30:32.465Z,1016.61
2018-01-07T06:31:32.445Z,1016.64
2018-01-07T06:32:32.407Z,1016.63
2018-01-07T06:33:32.383Z,1016.63
2018-01-07T06:34:32.366Z,1016.63
2018-01-07T06:35:32.332Z,1016.73
2018-01-07T06:36:32.287Z,1016.74
2018-01-07T06:37:32.273Z,1016.76
2018-01-07T06:38:32.221Z,1016.76
2018-01-07T06:39:32.196Z,1016.79
2018-01-07T06:40:32.159Z,1016.82
2018-01-07T06:41:32.123Z,1016.84
2018-01-07T06:42:32.100Z,1016.81
2018-01-07T06:43:32.064Z,1016.87
2018-01-07T06:44:32.034Z,1016.86
2018-01-07T06:45:32.029Z,1016.90
2018-01-07T06:46:31.978Z,1016.92
2018-01-07T06:47:31.943Z,1016.95
2018-01-07T06:48:31.940Z,1016.92
2018-01-07T06:49:31.899Z,1016.94
2018-01-07T06:50:31.854Z,1016.99
2018-01-07T06:51:31.824Z,1017.03
2018-01-07T06:52:31.797Z,1017.03
2018-01-07T06:53:31.772Z,1017.04
2018-01-07T06:54:31.771Z,1017.09
2018-01-07T06:55:31.707Z,1017.09
2018-01-07T06:56:31.676Z,1017.10
2018-01-07T06:57:31.660Z,1017.18
2018-01-07T06:58:31.606Z,1017.14
2018-01-07T06:59:31.574Z,1017.17
2018-01-07T07:00:31.578Z,1017.13
2018-01-07T07:01:31.518Z,1017.14
2018-01-07T07:02:31.488Z,1017.17
2018-01-07T07:03:31.453Z,1017.17
2018-01-07T07:04:31.434Z,1017.21
2018-01-07T07:05:31.403Z,1017.18
2018-01-07T07:06:31.379Z,1017.30
2018-01-07T07:07:31.334Z,1017.19
2018-01-07T07:08:31.304Z,1017.23
2018-01-07T07:09:31.282Z,1017.30
2018-01-07T07:10:31.246Z,1017.30
2018-01-07T07:11:31.214Z,1017.36
2018-01-07T07:12:31.199Z,1017.43
2018-01-07T07:13:31.143Z,1017.46
2018-01-07T07:14:31.116Z,1017.45
2018-01-07T07:15:31.103Z,1017.51
2018-01-07T07:16:31.053Z,1017.54
2018-01-07T07:17:31.025Z,1017.54
2018-01-07T07:18:31.009Z,1017.58
2018-01-07T07:19:30.978Z,1017.64
2018-01-07T07:20:30.935Z,1017.65
2018-01-07T07:21:30.907Z,1017.65
2018-01-07T07:22:30.892Z,1017.63
2018-01-07T07:23:30.846Z,1017.61
2018-01-07T07:24:30.830Z,1017.69
2018-01-07T07:25:30.782Z,1017.65
2018-01-07T07:26:30.770Z,1017.69
2018-01-07T07:27:30.719Z,1017.72
2018-01-07T07:28:30.696Z,1017.81
2018-01-07T07:29:30.694Z,1017.79
2018-01-07T07:30:30.630Z,1017.77
2018-01-07T07:31:30.602Z,1017.82
2018-01-07T07:32:30.562Z,1017.82
2018-01-07T07:33:30.533Z,1017.90
2018-01-07T07:34:30.511Z,1017.86
2018-01-07T07:35:30.472Z,1017.91
2018-01-07T07:36:30.450Z,1017.97
2018-01-07T07:37:30.414Z,1018.02
2018-01-07T07:38:30.384Z,1018.01
2018-01-07T07:39:30.353Z,1018.06
2018-01-07T07:40:30.348Z,1018.05
2018-01-07T07:41:30.293Z,1018.03
2018-01-07T07:42:30.258Z,1018.04
2018-01-07T07:43:30.229Z,1018.05
2018-01-07T07:44:30.196Z,1018.07
2018-01-07T07:45:30.171Z,1018.09
2018-01-07T07:46:30.132Z,1018.09
2018-01-07T07:47:30.100Z,1018.11
2018-01-07T07:48:30.106Z,1018.24
2018-01-07T07:49:30.040Z,1018.25
2018-01-07T07:50:30.018Z,1018.21
2018-01-07T07:51:29.979Z,1018.28
2018-01-07T07:52:29.945Z,1018.28
2018-01-07T07:53:29.923Z,1018.31
2018-01-07T07:54:29.896Z,1018.33
2018-01-07T07:55:29.858Z,1018.36
2018-01-07T07:56:29.853Z,1018.42
2018-01-07T07:57:29.798Z,1018.41
2018-01-07T07:58:29.770Z,1018.43
2018-01-07T07:59:29.748Z,1018.46
2018-01-07T08:00:29.704Z,1018.46
2018-01-07T08:01:29.678Z,1018.43
2018-01-07T08:02:29.639Z,1018.42
2018-01-07T08:03:29.611Z,1018.47
2018-01-07T08:04:29.592Z,1018.53
2018-01-07T08:05:29.558Z,1018.53
2018-01-07T08:06:29.517Z,1018.56
2018-01-07T08:07:30.240Z,1018.49
2018-01-07T08:08:29.453Z,1018.57
2018-01-07T08:09:29.428Z,1018.58
2018-01-07T08:10:29.396Z,1018.55
2018-01-07T08:11:30.304Z,1018.56
2018-01-07T08:12:29.345Z,1018.50
2018-01-07T08:13:29.313Z,1018.55
2018-01-07T08:14:29.273Z,1018.54
2018-01-07T08:15:29.262Z,1018.56
2018-01-07T08:16:29.218Z,1018.56
2018-01-07T08:17:29.184Z,1018.50
2018-01-07T08:18:29.146Z,1018.46
2018-01-07T08:19:29.117Z,1018.53
2018-01-07T08:20:29.089Z,1018.46
2018-01-07T08:21:29.055Z,1018.50
2018-01-07T08:22:29.024Z,1018.51
2018-01-07T08:23:29.041Z,1018.58
2018-01-07T08:24:28.960Z,1018.47
2018-01-07T08:25:28.936Z,1018.45
2018-01-07T08:26:28.909Z,1018.51
2018-01-07T08:27:28.896Z,1018.47
2018-01-07T08:28:28.840Z,1018.48
2018-01-07T08:29:28.810Z,1018.49
2018-01-07T08:30:28.780Z,1018.55
2018-01-07T08:31:28.756Z,1018.55
2018-01-07T08:32:28.720Z,1018.55
2018-01-07T08:33:28.686Z,1018.59
2018-01-07T08:34:28.806Z,1018.60
2018-01-07T08:35:28.624Z,1018.63
2018-01-07T08:36:28.601Z,1018.68
2018-01-07T08:37:28.604Z,1018.67
2018-01-07T08:38:28.532Z,1018.67
2018-01-07T08:39:28.517Z,1018.63
2018-01-07T08:40:28.474Z,1018.71
2018-01-07T08:41:28.439Z,1018.74
2018-01-07T08:42:28.408Z,1018.73
2018-01-07T08:43:28.381Z,1018.77
2018-01-07T08:44:28.349Z,1018.81
2018-01-07T08:45:28.317Z,1018.86
2018-01-07T08:46:28.286Z,1018.85
2018-01-07T08:47:28.275Z,1018.91
2018-01-07T08:48:28.225Z,1018.97
2018-01-07T08:49:28.195Z,1018.91
2018-01-07T08:50:28.166Z,1018.97
2018-01-07T08:51:28.132Z,1019.02
2018-01-07T08:52:28.105Z,1019.00
2018-01-07T08:53:28.079Z,1018.98
2018-01-07T08:54:28.040Z,1019.01
2018-01-07T08:55:28.022Z,1019.05
2018-01-07T08:56:27.977Z,1019.09
2018-01-07T08:57:27.942Z,1019.09
2018-01-07T08:58:27.912Z,1019.06
2018-01-07T08:59:27.883Z,1019.22
2018-01-07T09:00:27.853Z,1019.22
2018-01-07T09:01:27.820Z,1019.16
2018-01-07T09:02:27.820Z,1019.21
2018-01-07T09:03:27.764Z,1019.19
2018-01-07T09:04:27.728Z,1019.18
2018-01-07T09:05:27.699Z,1019.21
2018-01-07T09:06:27.694Z,1019.30
2018-01-07T09:07:27.643Z,1019.28
2018-01-07T09:08:27.607Z,1019.20
2018-01-07T09:09:27.577Z,1019.25
2018-01-07T09:10:27.552Z,1019.19
2018-01-07T09:11:27.515Z,1019.25
2018-01-07T09:12:27.506Z,1019.19
2018-01-07T09:13:27.450Z,1019.28
2018-01-07T09:14:27.432Z,1019.32
2018-01-07T09:15:27.391Z,1019.32
2018-01-07T09:16:27.360Z,1019.29
2018-01-07T09:17:27.337Z,1019.35
2018-01-07T09:18:27.308Z,1019.30
2018-01-07T09:19:27.266Z,1019.27
2018-01-07T09:20:27.261Z,1019.37
2018-01-07T09:21:27.207Z,1019.30
2018-01-07T09:22:27.183Z,1019.25
2018-01-07T09:23:27.146Z,1019.37
2018-01-07T09:24:27.112Z,1019.25
2018-01-07T09:25:27.100Z,1019.37
2018-01-07T09:26:27.051Z,1019.42
2018-01-07T09:27:27.026Z,1019.44
2018-01-07T09:28:29.813Z,1019.49
2018-01-07T09:29:26.957Z,1019.55
2018-01-07T09:30:26.929Z,1019.43
2018-01-07T09:31:26.897Z,1019.53
2018-01-07T09:32:26.864Z,1019.51
2018-01-07T09:33:26.847Z,1019.53
2018-01-07T09:34:26.802Z,1019.53
2018-01-07T09:35:26.775Z,1019.51
2018-01-07T09:36:26.744Z,1019.58
2018-01-07T09:37:26.714Z,1019.56
2018-01-07T09:38:26.689Z,1019.65
2018-01-07T09:39:26.657Z,1019.58
2018-01-07T09:40:26.623Z,1019.62
2018-01-07T09:41:26.594Z,1019.64
2018-01-07T09:42:26.561Z,1019.65
2018-01-07T09:43:26.527Z,1019.59
2018-01-07T09:44:26.509Z,1019.62
2018-01-07T09:45:26.475Z,1019.66
2018-01-07T09:46:26.447Z,1019.74
2018-01-07T09:47:26.432Z,1019.73
2018-01-07T09:48:26.380Z,1019.69
2018-01-07T09:49:26.357Z,1019.81
2018-01-07T09:50:26.318Z,1019.78
2018-01-07T09:51:26.290Z,1019.83
2018-01-07T09:52:26.266Z,1019.83
2018-01-07T09:53:26.224Z,1019.89
2018-01-07T09:54:26.197Z,1019.90
2018-01-07T09:55:26.176Z,1019.98
2018-01-07T09:56:26.130Z,1019.96
2018-01-07T09:57:26.097Z,1019.92
2018-01-07T09:58:26.086Z,1020.00
2018-01-07T09:59:26.046Z,1019.92
2018-01-07T10:00:26.022Z,1019.90
2018-01-07T10:01:26.005Z,1019.88
2018-01-07T10:02:25.951Z,1019.94
2018-01-07T10:03:25.928Z,1019.92
2018-01-07T10:04:25.893Z,1020.03
2018-01-07T10:05:25.860Z,1020.04
2018-01-07T10:06:25.848Z,1020.06
2018-01-07T10:07:25.805Z,1020.09
2018-01-07T10:08:25.772Z,1020.20
2018-01-07T10:09:25.748Z,1020.16
2018-01-07T10:10:25.702Z,1020.17
2018-01-07T10:11:25.671Z,1020.22
2018-01-07T10:12:25.670Z,1020.22
2018-01-07T10:13:25.608Z,1020.28
2018-01-07T10:14:25.598Z,1020.25
2018-01-07T10:15:25.549Z,1020.27
2018-01-07T10:16:25.523Z,1020.21
2018-01-07T10:17:25.489Z,1020.26
2018-01-07T10:18:25.464Z,1020.25
2018-01-07T10:19:25.435Z,1020.22
2018-01-07T10:20:25.398Z,1020.26
2018-01-07T10:21:25.364Z,1020.17
2018-01-07T10:22:25.337Z,1020.23
2018-01-07T10:23:25.305Z,1020.22
2018-01-07T10:24:25.273Z,1020.16
2018-01-07T10:25:25.246Z,1020.20
2018-01-07T10:26:25.208Z,1020.23
2018-01-07T10:27:25.176Z,1020.22
2018-01-07T10:28:25.167Z,1020.30
2018-01-07T10:29:25.116Z,1020.28
2018-01-07T10:30:25.100Z,1020.32
2018-01-07T10:31:25.058Z,1020.33
2018-01-07T10:32:25.042Z,1020.34
2018-01-07T10:33:25.009Z,1020.22
2018-01-07T10:34:24.974Z,1020.30
2018-01-07T10:35:24.937Z,1020.28
2018-01-07T10:36:24.909Z,1020.14
2018-01-07T10:37:24.876Z,1020.30
2018-01-07T10:38:25.843Z,1020.33
2018-01-07T10:39:24.813Z,1020.35
2018-01-07T10:40:24.786Z,1020.43
2018-01-07T10:41:26.308Z,1020.37
2018-01-07T10:42:24.717Z,1020.39
2018-01-07T10:43:24.718Z,1020.35
2018-01-07T10:44:24.657Z,1020.39
2018-01-07T10:45:24.638Z,1020.38
2018-01-07T10:46:24.630Z,1020.33
2018-01-07T10:47:24.576Z,1020.30
2018-01-07T10:48:24.540Z,1020.34
2018-01-07T10:49:24.508Z,1020.37
2018-01-07T10:50:24.476Z,1020.29
2018-01-07T10:51:24.446Z,1020.30
2018-01-07T10:52:24.426Z,1020.23
2018-01-07T10:53:24.380Z,1020.30
2018-01-07T10:54:24.354Z,1020.23
2018-01-07T10:55:24.320Z,1020.27
2018-01-07T10:56:24.288Z,1020.25
2018-01-07T10:57:24.262Z,1020.24
2018-01-07T10:58:24.232Z,1020.30
2018-01-07T10:59:24.203Z,1020.26
2018-01-07T11:00:24.171Z,1020.26
2018-01-07T11:01:24.139Z,1020.28
2018-01-07T11:02:24.112Z,1020.34
2018-01-07T11:03:24.083Z,1020.19
2018-01-07T11:04:24.086Z,1020.20
2018-01-07T11:05:24.021Z,1020.22
2018-01-07T11:06:24.001Z,1020.15
2018-01-07T11:07:23.977Z,1020.14
2018-01-07T11:08:23.929Z,1020.18
2018-01-07T11:09:23.895Z,1020.18
2018-01-07T11:10:23.885Z,1020.16
2018-01-07T11:11:23.840Z,1020.15
2018-01-07T11:12:23.801Z,1020.20
2018-01-07T11:13:23.793Z,1020.10
2018-01-07T11:14:23.755Z,1020.10
2018-01-07T11:15:23.715Z,1020.21
2018-01-07T11:16:23.707Z,1020.17
2018-01-07T11:17:23.679Z,1020.12
2018-01-07T11:18:23.644Z,1020.15
2018-01-07T11:19:23.605Z,1020.20
2018-01-07T11:20:23.587Z,1020.14
2018-01-07T11:21:23.529Z,1020.14
2018-01-07T11:22:23.511Z,1020.11
2018-01-07T11:23:23.465Z,1020.12
2018-01-07T11:24:23.438Z,1020.06
2018-01-07T11:25:23.440Z,1020.09
2018-01-07T11:26:23.376Z,1020.07
2018-01-07T11:27:23.345Z,1020.09
2018-01-07T11:28:23.319Z,1020.06
2018-01-07T11:29:23.286Z,1020.10
2018-01-07T11:30:23.254Z,1020.11
2018-01-07T11:31:23.265Z,1020.06
2018-01-07T11:32:23.191Z,1020.09
2018-01-07T11:33:23.164Z,1020.04
2018-01-07T11:34:23.142Z,1020.06
2018-01-07T11:35:23.101Z,1020.09
2018-01-07T11:36:23.087Z,1020.11
2018-01-07T11:37:23.052Z,1020.15
2018-01-07T11:38:23.010Z,1020.14
2018-01-07T11:39:23.008Z,1020.10
2018-01-07T11:40:22.960Z,1020.11
2018-01-07T11:41:22.916Z,1020.11
2018-01-07T11:42:22.883Z,1020.16
2018-01-07T11:43:22.865Z,1020.18
2018-01-07T11:44:22.840Z,1020.20
2018-01-07T11:45:22.846Z,1020.19
2018-01-07T11:46:22.815Z,1020.22
2018-01-07T11:47:22.745Z,1020.23
2018-01-07T11:48:22.702Z,1020.14
2018-01-07T11:49:22.705Z,1020.17
2018-01-07T11:50:22.638Z,1020.19
2018-01-07T11:51:22.609Z,1020.14
2018-01-07T11:52:22.611Z,1020.13
2018-01-07T11:53:22.549Z,1020.14
2018-01-07T11:54:22.522Z,1020.15
2018-01-07T11:55:22.509Z,1020.14
2018-01-07T11:56:22.483Z,1020.07
2018-01-07T11:57:22.434Z,1020.14
2018-01-07T11:58:22.405Z,1020.13
2018-01-07T11:59:22.368Z,1020.09
2018-01-07T12:00:22.336Z,1020.08
2018-01-07T12:01:22.303Z,1020.03
2018-01-07T12:02:22.271Z,1020.04
2018-01-07T12:03:22.241Z,1020.01
2018-01-07T12:04:22.220Z,1020.01
2018-01-07T12:05:22.186Z,1020.04
2018-01-07T12:06:22.171Z,1019.97